sensor_id;sensor_type;location;lat;lon;timestamp;P1;durP1;ratioP1;P2;durP2;ratioP2
8694;SDS011;65580;49.446;6.854;2023-01-26T00:00:38;28.15;;;9.23;;
8694;SDS011;65580;49.446;6.854;2023-01-26T00:04:44;31.98;;;10.55;;
8694;SDS011;65580;49.446;6.854;2023-01-26T00:10:08;33.67;;;9.93;;
8694;SDS011;65580;49.446;6.854;2023-01-26T00:14:13;26.92;;;9.00;;
8694;SDS011;65580;49.446;6.854;2023-01-26T00:18:29;26.70;;;8.85;;
8694;SDS011;65580;49.446;6.854;2023-01-26T00:22:38;26.85;;;8.80;;
8694;SDS011;65580;49.446;6.854;2023-01-26T00:26:48;33.95;;;9.52;;
8694;SDS011;65580;49.446;6.854;2023-01-26T00:30:53;27.15;;;9.05;;
8694;SDS011;65580;49.446;6.854;2023-01-26T00:35:16;23.90;;;8.50;;
8694;SDS011;65580;49.446;6.854;2023-01-26T00:39:26;27.10;;;9.32;;
8694;SDS011;65580;49.446;6.854;2023-01-26T00:43:54;23.67;;;8.75;;
8694;SDS011;65580;49.446;6.854;2023-01-26T00:48:06;21.92;;;8.32;;
8694;SDS011;65580;49.446;6.854;2023-01-26T00:52:11;28.65;;;8.85;;
8694;SDS011;65580;49.446;6.854;2023-01-26T00:56:21;23.48;;;8.07;;
8694;SDS011;65580;49.446;6.854;2023-01-26T01:00:33;20.27;;;7.63;;
8694;SDS011;65580;49.446;6.854;2023-01-26T01:04:54;20.52;;;7.07;;
8694;SDS011;65580;49.446;6.854;2023-01-26T01:09:05;27.27;;;8.68;;
8694;SDS011;65580;49.446;6.854;2023-01-26T01:13:18;23.20;;;7.65;;
8694;SDS011;65580;49.446;6.854;2023-01-26T01:17:32;21.85;;;6.90;;
8694;SDS011;65580;49.446;6.854;2023-01-26T01:21:48;22.92;;;7.72;;
8694;SDS011;65580;49.446;6.854;2023-01-26T01:26:02;23.90;;;8.07;;
8694;SDS011;65580;49.446;6.854;2023-01-26T01:30:16;29.38;;;8.65;;
8694;SDS011;65580;49.446;6.854;2023-01-26T01:34:30;22.23;;;8.30;;
8694;SDS011;65580;49.446;6.854;2023-01-26T01:38:48;19.83;;;7.43;;
8694;SDS011;65580;49.446;6.854;2023-01-26T01:43:00;23.15;;;8.20;;
8694;SDS011;65580;49.446;6.854;2023-01-26T01:47:09;23.73;;;9.05;;
8694;SDS011;65580;49.446;6.854;2023-01-26T01:51:30;18.55;;;7.20;;
8694;SDS011;65580;49.446;6.854;2023-01-26T01:55:46;30.25;;;9.15;;
8694;SDS011;65580;49.446;6.854;2023-01-26T01:59:59;20.10;;;7.75;;
8694;SDS011;65580;49.446;6.854;2023-01-26T02:04:08;24.73;;;7.70;;
8694;SDS011;65580;49.446;6.854;2023-01-26T02:08:19;19.77;;;6.78;;
8694;SDS011;65580;49.446;6.854;2023-01-26T02:12:32;19.27;;;7.15;;
8694;SDS011;65580;49.446;6.854;2023-01-26T02:16:43;22.90;;;7.00;;
8694;SDS011;65580;49.446;6.854;2023-01-26T02:20:58;25.52;;;7.70;;
8694;SDS011;65580;49.446;6.854;2023-01-26T02:25:15;26.75;;;7.28;;
8694;SDS011;65580;49.446;6.854;2023-01-26T02:29:24;23.60;;;8.02;;
8694;SDS011;65580;49.446;6.854;2023-01-26T02:33:48;19.75;;;6.75;;
8694;SDS011;65580;49.446;6.854;2023-01-26T02:38:01;18.83;;;6.10;;
8694;SDS011;65580;49.446;6.854;2023-01-26T02:42:08;18.73;;;6.43;;
8694;SDS011;65580;49.446;6.854;2023-01-26T02:46:39;15.70;;;6.25;;
8694;SDS011;65580;49.446;6.854;2023-01-26T02:51:03;13.07;;;5.30;;
8694;SDS011;65580;49.446;6.854;2023-01-26T02:55:09;12.02;;;4.78;;
8694;SDS011;65580;49.446;6.854;2023-01-26T02:59:31;14.60;;;5.57;;
8694;SDS011;65580;49.446;6.854;2023-01-26T03:03:50;11.85;;;4.78;;
8694;SDS011;65580;49.446;6.854;2023-01-26T03:08:01;11.75;;;5.18;;
8694;SDS011;65580;49.446;6.854;2023-01-26T03:12:07;12.45;;;5.20;;
8694;SDS011;65580;49.446;6.854;2023-01-26T03:16:18;12.82;;;4.97;;
8694;SDS011;65580;49.446;6.854;2023-01-26T03:20:28;9.80;;;4.25;;
8694;SDS011;65580;49.446;6.854;2023-01-26T03:24:50;10.52;;;4.53;;
8694;SDS011;65580;49.446;6.854;2023-01-26T03:29:19;12.27;;;5.00;;
8694;SDS011;65580;49.446;6.854;2023-01-26T03:33:28;16.38;;;6.35;;
8694;SDS011;65580;49.446;6.854;2023-01-26T03:37:40;14.23;;;5.13;;
8694;SDS011;65580;49.446;6.854;2023-01-26T03:42:01;12.75;;;4.68;;
8694;SDS011;65580;49.446;6.854;2023-01-26T03:46:28;10.75;;;4.50;;
8694;SDS011;65580;49.446;6.854;2023-01-26T03:50:53;12.50;;;4.85;;
8694;SDS011;65580;49.446;6.854;2023-01-26T03:55:20;11.55;;;4.55;;
8694;SDS011;65580;49.446;6.854;2023-01-26T03:59:47;10.32;;;4.53;;
8694;SDS011;65580;49.446;6.854;2023-01-26T04:03:57;15.48;;;5.68;;
8694;SDS011;65580;49.446;6.854;2023-01-26T04:08:20;12.15;;;5.65;;
8694;SDS011;65580;49.446;6.854;2023-01-26T04:12:29;11.07;;;4.80;;
8694;SDS011;65580;49.446;6.854;2023-01-26T04:16:38;12.15;;;5.32;;
8694;SDS011;65580;49.446;6.854;2023-01-26T04:21:05;9.45;;;4.57;;
8694;SDS011;65580;49.446;6.854;2023-01-26T04:25:28;12.90;;;5.18;;
8694;SDS011;65580;49.446;6.854;2023-01-26T04:29:39;12.35;;;4.82;;
8694;SDS011;65580;49.446;6.854;2023-01-26T04:33:46;9.45;;;4.35;;
8694;SDS011;65580;49.446;6.854;2023-01-26T04:37:52;9.23;;;4.45;;
8694;SDS011;65580;49.446;6.854;2023-01-26T04:41:56;10.05;;;4.68;;
8694;SDS011;65580;49.446;6.854;2023-01-26T04:46:02;9.57;;;4.22;;
8694;SDS011;65580;49.446;6.854;2023-01-26T04:50:10;8.88;;;3.85;;
8694;SDS011;65580;49.446;6.854;2023-01-26T04:58:25;7.57;;;3.67;;
8694;SDS011;65580;49.446;6.854;2023-01-26T05:02:33;9.75;;;3.88;;
8694;SDS011;65580;49.446;6.854;2023-01-26T05:06:39;9.02;;;3.83;;
8694;SDS011;65580;49.446;6.854;2023-01-26T05:10:46;8.52;;;4.07;;
8694;SDS011;65580;49.446;6.854;2023-01-26T05:14:53;7.15;;;3.40;;
8694;SDS011;65580;49.446;6.854;2023-01-26T05:23:18;5.43;;;2.55;;
8694;SDS011;65580;49.446;6.854;2023-01-26T05:27:29;5.75;;;2.65;;
8694;SDS011;65580;49.446;6.854;2023-01-26T05:31:33;6.80;;;3.05;;
8694;SDS011;65580;49.446;6.854;2023-01-26T05:35:42;7.35;;;2.70;;
8694;SDS011;65580;49.446;6.854;2023-01-26T05:39:46;4.78;;;2.40;;
8694;SDS011;65580;49.446;6.854;2023-01-26T05:43:53;4.50;;;2.33;;
8694;SDS011;65580;49.446;6.854;2023-01-26T05:47:58;5.35;;;2.20;;
8694;SDS011;65580;49.446;6.854;2023-01-26T05:52:14;4.85;;;2.35;;
8694;SDS011;65580;49.446;6.854;2023-01-26T05:56:21;4.10;;;2.10;;
8694;SDS011;65580;49.446;6.854;2023-01-26T06:00:30;6.72;;;2.60;;
8694;SDS011;65580;49.446;6.854;2023-01-26T06:04:40;4.43;;;2.47;;
8694;SDS011;65580;49.446;6.854;2023-01-26T06:08:52;5.80;;;2.70;;
8694;SDS011;65580;49.446;6.854;2023-01-26T06:13:02;5.80;;;2.80;;
8694;SDS011;65580;49.446;6.854;2023-01-26T06:17:10;5.63;;;2.85;;
8694;SDS011;65580;49.446;6.854;2023-01-26T06:21:20;7.85;;;3.72;;
8694;SDS011;65580;49.446;6.854;2023-01-26T06:25:28;4.50;;;2.60;;
8694;SDS011;65580;49.446;6.854;2023-01-26T06:29:33;5.28;;;2.65;;
8694;SDS011;65580;49.446;6.854;2023-01-26T06:33:41;5.25;;;2.53;;
8694;SDS011;65580;49.446;6.854;2023-01-26T06:37:53;5.32;;;2.50;;
8694;SDS011;65580;49.446;6.854;2023-01-26T06:42:00;5.50;;;2.75;;
8694;SDS011;65580;49.446;6.854;2023-01-26T06:46:11;5.85;;;2.53;;
8694;SDS011;65580;49.446;6.854;2023-01-26T06:50:25;7.40;;;3.40;;
8694;SDS011;65580;49.446;6.854;2023-01-26T06:54:42;5.97;;;2.70;;
8694;SDS011;65580;49.446;6.854;2023-01-26T06:58:52;6.05;;;3.25;;
8694;SDS011;65580;49.446;6.854;2023-01-26T07:03:02;6.20;;;2.83;;
8694;SDS011;65580;49.446;6.854;2023-01-26T07:07:23;6.97;;;2.65;;
8694;SDS011;65580;49.446;6.854;2023-01-26T07:11:33;4.75;;;2.50;;
8694;SDS011;65580;49.446;6.854;2023-01-26T07:15:39;4.38;;;2.30;;
8694;SDS011;65580;49.446;6.854;2023-01-26T07:19:44;5.38;;;2.40;;
8694;SDS011;65580;49.446;6.854;2023-01-26T07:24:02;4.45;;;2.20;;
8694;SDS011;65580;49.446;6.854;2023-01-26T07:28:10;4.38;;;2.50;;
8694;SDS011;65580;49.446;6.854;2023-01-26T07:32:17;3.83;;;2.13;;
8694;SDS011;65580;49.446;6.854;2023-01-26T07:36:22;4.45;;;2.40;;
8694;SDS011;65580;49.446;6.854;2023-01-26T07:40:29;3.47;;;2.03;;
8694;SDS011;65580;49.446;6.854;2023-01-26T07:44:31;4.72;;;2.65;;
8694;SDS011;65580;49.446;6.854;2023-01-26T07:48:36;4.82;;;2.40;;
8694;SDS011;65580;49.446;6.854;2023-01-26T07:52:42;4.10;;;2.40;;
8694;SDS011;65580;49.446;6.854;2023-01-26T07:56:45;5.63;;;2.55;;
8694;SDS011;65580;49.446;6.854;2023-01-26T08:00:52;5.10;;;2.25;;
8694;SDS011;65580;49.446;6.854;2023-01-26T08:04:59;5.57;;;2.58;;
8694;SDS011;65580;49.446;6.854;2023-01-26T08:09:09;4.78;;;2.28;;
8694;SDS011;65580;49.446;6.854;2023-01-26T08:13:20;5.22;;;2.42;;
8694;SDS011;65580;49.446;6.854;2023-01-26T08:17:36;5.95;;;2.85;;
8694;SDS011;65580;49.446;6.854;2023-01-26T08:21:53;7.07;;;2.92;;
8694;SDS011;65580;49.446;6.854;2023-01-26T08:26:07;4.65;;;2.50;;
8694;SDS011;65580;49.446;6.854;2023-01-26T08:30:21;4.80;;;2.50;;
8694;SDS011;65580;49.446;6.854;2023-01-26T08:34:31;5.70;;;2.72;;
8694;SDS011;65580;49.446;6.854;2023-01-26T08:38:41;4.03;;;2.30;;
8694;SDS011;65580;49.446;6.854;2023-01-26T08:42:52;6.82;;;3.17;;
8694;SDS011;65580;49.446;6.854;2023-01-26T08:46:57;6.43;;;3.13;;
8694;SDS011;65580;49.446;6.854;2023-01-26T08:51:07;6.60;;;3.20;;
8694;SDS011;65580;49.446;6.854;2023-01-26T08:55:18;2.40;;;1.65;;
8694;SDS011;65580;49.446;6.854;2023-01-26T08:59:22;7.40;;;3.28;;
8694;SDS011;65580;49.446;6.854;2023-01-26T09:03:31;6.45;;;3.10;;
8694;SDS011;65580;49.446;6.854;2023-01-26T09:07:34;6.13;;;2.95;;
8694;SDS011;65580;49.446;6.854;2023-01-26T09:11:39;8.38;;;3.58;;
8694;SDS011;65580;49.446;6.854;2023-01-26T09:15:53;5.20;;;2.60;;
8694;SDS011;65580;49.446;6.854;2023-01-26T09:19:59;5.68;;;2.95;;
8694;SDS011;65580;49.446;6.854;2023-01-26T09:24:02;7.03;;;2.75;;
8694;SDS011;65580;49.446;6.854;2023-01-26T09:28:06;7.82;;;2.97;;
8694;SDS011;65580;49.446;6.854;2023-01-26T09:32:09;3.38;;;1.90;;
8694;SDS011;65580;49.446;6.854;2023-01-26T09:36:11;6.10;;;3.00;;
8694;SDS011;65580;49.446;6.854;2023-01-26T09:40:17;5.70;;;2.63;;
8694;SDS011;65580;49.446;6.854;2023-01-26T09:44:24;6.18;;;3.03;;
8694;SDS011;65580;49.446;6.854;2023-01-26T09:48:30;7.30;;;2.75;;
8694;SDS011;65580;49.446;6.854;2023-01-26T09:52:43;4.65;;;2.97;;
8694;SDS011;65580;49.446;6.854;2023-01-26T09:56:59;5.60;;;2.72;;
8694;SDS011;65580;49.446;6.854;2023-01-26T10:01:04;6.10;;;2.85;;
8694;SDS011;65580;49.446;6.854;2023-01-26T10:05:30;6.35;;;2.60;;
8694;SDS011;65580;49.446;6.854;2023-01-26T10:09:43;6.80;;;3.38;;
8694;SDS011;65580;49.446;6.854;2023-01-26T10:13:49;6.32;;;3.00;;
8694;SDS011;65580;49.446;6.854;2023-01-26T10:17:56;5.55;;;3.05;;
8694;SDS011;65580;49.446;6.854;2023-01-26T10:22:02;7.00;;;3.30;;
8694;SDS011;65580;49.446;6.854;2023-01-26T10:26:13;7.30;;;3.85;;
8694;SDS011;65580;49.446;6.854;2023-01-26T10:30:23;8.13;;;4.15;;
8694;SDS011;65580;49.446;6.854;2023-01-26T10:34:27;7.63;;;3.80;;
8694;SDS011;65580;49.446;6.854;2023-01-26T10:38:37;6.93;;;3.35;;
8694;SDS011;65580;49.446;6.854;2023-01-26T10:42:52;6.38;;;3.42;;
8694;SDS011;65580;49.446;6.854;2023-01-26T10:47:04;6.32;;;3.17;;
8694;SDS011;65580;49.446;6.854;2023-01-26T10:51:15;5.65;;;3.25;;
8694;SDS011;65580;49.446;6.854;2023-01-26T10:55:21;6.60;;;3.45;;
8694;SDS011;65580;49.446;6.854;2023-01-26T10:59:26;6.28;;;3.33;;
8694;SDS011;65580;49.446;6.854;2023-01-26T11:03:31;6.57;;;3.30;;
8694;SDS011;65580;49.446;6.854;2023-01-26T11:07:36;7.53;;;3.60;;
8694;SDS011;65580;49.446;6.854;2023-01-26T11:11:42;6.95;;;4.00;;
8694;SDS011;65580;49.446;6.854;2023-01-26T11:16:07;7.35;;;3.70;;
8694;SDS011;65580;49.446;6.854;2023-01-26T11:20:22;6.97;;;3.53;;
8694;SDS011;65580;49.446;6.854;2023-01-26T11:24:40;9.15;;;4.05;;
8694;SDS011;65580;49.446;6.854;2023-01-26T11:28:47;7.35;;;2.65;;
8694;SDS011;65580;49.446;6.854;2023-01-26T11:33:00;5.97;;;3.28;;
8694;SDS011;65580;49.446;6.854;2023-01-26T11:37:14;5.20;;;3.13;;
8694;SDS011;65580;49.446;6.854;2023-01-26T11:41:44;6.13;;;3.42;;
8694;SDS011;65580;49.446;6.854;2023-01-26T11:46:00;7.03;;;3.47;;
8694;SDS011;65580;49.446;6.854;2023-01-26T11:50:16;6.65;;;3.75;;
8694;SDS011;65580;49.446;6.854;2023-01-26T11:54:27;6.38;;;3.63;;
8694;SDS011;65580;49.446;6.854;2023-01-26T11:58:52;7.10;;;3.40;;
8694;SDS011;65580;49.446;6.854;2023-01-26T12:03:00;6.80;;;3.83;;
8694;SDS011;65580;49.446;6.854;2023-01-26T12:07:05;5.30;;;2.58;;
8694;SDS011;65580;49.446;6.854;2023-01-26T12:11:17;7.85;;;3.88;;
8694;SDS011;65580;49.446;6.854;2023-01-26T12:15:30;5.88;;;3.03;;
8694;SDS011;65580;49.446;6.854;2023-01-26T12:19:37;5.18;;;2.55;;
8694;SDS011;65580;49.446;6.854;2023-01-26T12:23:48;5.07;;;2.38;;
8694;SDS011;65580;49.446;6.854;2023-01-26T12:28:01;8.20;;;4.22;;
8694;SDS011;65580;49.446;6.854;2023-01-26T12:32:11;7.07;;;3.65;;
8694;SDS011;65580;49.446;6.854;2023-01-26T12:36:18;8.00;;;4.18;;
8694;SDS011;65580;49.446;6.854;2023-01-26T12:40:29;7.55;;;3.70;;
8694;SDS011;65580;49.446;6.854;2023-01-26T12:44:37;10.13;;;4.68;;
8694;SDS011;65580;49.446;6.854;2023-01-26T12:48:44;8.40;;;4.03;;
8694;SDS011;65580;49.446;6.854;2023-01-26T12:52:51;7.72;;;3.80;;
8694;SDS011;65580;49.446;6.854;2023-01-26T12:56:56;7.88;;;4.03;;
8694;SDS011;65580;49.446;6.854;2023-01-26T13:01:02;8.00;;;4.03;;
8694;SDS011;65580;49.446;6.854;2023-01-26T13:05:20;7.35;;;3.78;;
8694;SDS011;65580;49.446;6.854;2023-01-26T13:09:27;10.07;;;4.28;;
8694;SDS011;65580;49.446;6.854;2023-01-26T13:13:33;9.82;;;4.20;;
8694;SDS011;65580;49.446;6.854;2023-01-26T13:17:48;9.00;;;4.35;;
8694;SDS011;65580;49.446;6.854;2023-01-26T13:22:08;8.02;;;3.88;;
8694;SDS011;65580;49.446;6.854;2023-01-26T13:26:44;8.98;;;4.43;;
8694;SDS011;65580;49.446;6.854;2023-01-26T13:30:55;8.95;;;3.95;;
8694;SDS011;65580;49.446;6.854;2023-01-26T13:35:06;9.32;;;3.63;;
8694;SDS011;65580;49.446;6.854;2023-01-26T13:39:17;8.70;;;4.20;;
8694;SDS011;65580;49.446;6.854;2023-01-26T13:43:27;9.25;;;4.00;;
8694;SDS011;65580;49.446;6.854;2023-01-26T13:47:40;9.10;;;4.32;;
8694;SDS011;65580;49.446;6.854;2023-01-26T13:51:45;7.88;;;3.63;;
8694;SDS011;65580;49.446;6.854;2023-01-26T13:55:50;25.73;;;9.75;;
8694;SDS011;65580;49.446;6.854;2023-01-26T13:59:57;10.35;;;4.25;;
8694;SDS011;65580;49.446;6.854;2023-01-26T14:04:03;10.18;;;4.07;;
8694;SDS011;65580;49.446;6.854;2023-01-26T14:08:10;11.48;;;3.70;;
8694;SDS011;65580;49.446;6.854;2023-01-26T14:12:19;9.38;;;4.10;;
8694;SDS011;65580;49.446;6.854;2023-01-26T14:16:29;11.52;;;4.53;;
8694;SDS011;65580;49.446;6.854;2023-01-26T14:20:41;9.23;;;4.40;;
8694;SDS011;65580;49.446;6.854;2023-01-26T14:24:46;14.35;;;6.35;;
8694;SDS011;65580;49.446;6.854;2023-01-26T14:28:51;12.38;;;5.43;;
8694;SDS011;65580;49.446;6.854;2023-01-26T14:33:03;12.25;;;5.55;;
8694;SDS011;65580;49.446;6.854;2023-01-26T14:37:11;14.07;;;5.85;;
8694;SDS011;65580;49.446;6.854;2023-01-26T14:41:16;10.90;;;5.13;;
8694;SDS011;65580;49.446;6.854;2023-01-26T14:45:23;14.43;;;5.18;;
8694;SDS011;65580;49.446;6.854;2023-01-26T14:49:37;12.00;;;5.07;;
8694;SDS011;65580;49.446;6.854;2023-01-26T14:53:47;10.48;;;5.18;;
8694;SDS011;65580;49.446;6.854;2023-01-26T14:57:51;12.88;;;5.45;;
8694;SDS011;65580;49.446;6.854;2023-01-26T15:02:02;12.68;;;5.43;;
8694;SDS011;65580;49.446;6.854;2023-01-26T15:06:20;13.07;;;5.53;;
8694;SDS011;65580;49.446;6.854;2023-01-26T15:10:33;11.95;;;5.13;;
8694;SDS011;65580;49.446;6.854;2023-01-26T15:14:38;12.57;;;5.75;;
8694;SDS011;65580;49.446;6.854;2023-01-26T15:18:58;13.32;;;5.63;;
8694;SDS011;65580;49.446;6.854;2023-01-26T15:23:01;12.38;;;5.43;;
8694;SDS011;65580;49.446;6.854;2023-01-26T15:27:17;17.42;;;7.25;;
8694;SDS011;65580;49.446;6.854;2023-01-26T15:31:22;11.63;;;5.53;;
8694;SDS011;65580;49.446;6.854;2023-01-26T15:35:36;13.02;;;6.03;;
8694;SDS011;65580;49.446;6.854;2023-01-26T15:39:41;17.00;;;6.63;;
8694;SDS011;65580;49.446;6.854;2023-01-26T15:43:51;17.88;;;6.75;;
8694;SDS011;65580;49.446;6.854;2023-01-26T15:47:55;14.18;;;6.03;;
8694;SDS011;65580;49.446;6.854;2023-01-26T15:52:11;17.83;;;6.45;;
8694;SDS011;65580;49.446;6.854;2023-01-26T15:56:23;24.35;;;9.00;;
8694;SDS011;65580;49.446;6.854;2023-01-26T16:00:29;23.10;;;9.07;;
8694;SDS011;65580;49.446;6.854;2023-01-26T16:04:37;18.20;;;6.60;;
8694;SDS011;65580;49.446;6.854;2023-01-26T16:08:42;16.85;;;6.57;;
8694;SDS011;65580;49.446;6.854;2023-01-26T16:12:59;19.17;;;6.50;;
8694;SDS011;65580;49.446;6.854;2023-01-26T16:17:15;15.63;;;6.43;;
8694;SDS011;65580;49.446;6.854;2023-01-26T16:21:32;18.88;;;7.35;;
8694;SDS011;65580;49.446;6.854;2023-01-26T16:25:44;29.02;;;9.68;;
8694;SDS011;65580;49.446;6.854;2023-01-26T16:30:24;22.88;;;8.55;;
8694;SDS011;65580;49.446;6.854;2023-01-26T16:34:36;15.82;;;6.80;;
8694;SDS011;65580;49.446;6.854;2023-01-26T16:38:59;23.50;;;7.47;;
8694;SDS011;65580;49.446;6.854;2023-01-26T16:43:24;22.52;;;8.32;;
8694;SDS011;65580;49.446;6.854;2023-01-26T16:47:33;23.25;;;8.85;;
8694;SDS011;65580;49.446;6.854;2023-01-26T16:51:45;20.50;;;6.72;;
8694;SDS011;65580;49.446;6.854;2023-01-26T16:55:49;31.23;;;12.20;;
8694;SDS011;65580;49.446;6.854;2023-01-26T16:59:53;25.02;;;10.25;;
8694;SDS011;65580;49.446;6.854;2023-01-26T17:04:01;21.77;;;9.00;;
8694;SDS011;65580;49.446;6.854;2023-01-26T17:08:13;23.02;;;8.95;;
8694;SDS011;65580;49.446;6.854;2023-01-26T17:12:31;20.20;;;7.68;;
8694;SDS011;65580;49.446;6.854;2023-01-26T17:16:49;19.90;;;8.45;;
8694;SDS011;65580;49.446;6.854;2023-01-26T17:21:42;21.30;;;8.85;;
8694;SDS011;65580;49.446;6.854;2023-01-26T17:26:03;24.13;;;10.20;;
8694;SDS011;65580;49.446;6.854;2023-01-26T17:30:31;35.13;;;13.20;;
8694;SDS011;65580;49.446;6.854;2023-01-26T17:34:48;21.20;;;8.60;;
8694;SDS011;65580;49.446;6.854;2023-01-26T17:39:04;27.30;;;9.65;;
8694;SDS011;65580;49.446;6.854;2023-01-26T17:43:15;30.40;;;10.10;;
8694;SDS011;65580;49.446;6.854;2023-01-26T17:47:28;32.55;;;11.77;;
8694;SDS011;65580;49.446;6.854;2023-01-26T17:52:01;37.83;;;13.13;;
8694;SDS011;65580;49.446;6.854;2023-01-26T17:56:18;40.60;;;13.65;;
8694;SDS011;65580;49.446;6.854;2023-01-26T18:00:38;32.58;;;11.00;;
8694;SDS011;65580;49.446;6.854;2023-01-26T18:04:50;24.88;;;9.02;;
8694;SDS011;65580;49.446;6.854;2023-01-26T18:09:10;42.30;;;15.57;;
8694;SDS011;65580;49.446;6.854;2023-01-26T18:13:21;24.77;;;10.20;;
8694;SDS011;65580;49.446;6.854;2023-01-26T18:17:37;30.33;;;11.93;;
8694;SDS011;65580;49.446;6.854;2023-01-26T18:21:52;50.00;;;18.33;;
8694;SDS011;65580;49.446;6.854;2023-01-26T18:26:13;33.05;;;12.35;;
8694;SDS011;65580;49.446;6.854;2023-01-26T18:30:42;37.47;;;14.02;;
8694;SDS011;65580;49.446;6.854;2023-01-26T18:34:47;35.22;;;13.65;;
8694;SDS011;65580;49.446;6.854;2023-01-26T18:39:11;30.75;;;11.98;;
8694;SDS011;65580;49.446;6.854;2023-01-26T18:43:20;32.67;;;12.60;;
8694;SDS011;65580;49.446;6.854;2023-01-26T18:47:34;40.45;;;14.38;;
8694;SDS011;65580;49.446;6.854;2023-01-26T18:51:44;28.67;;;10.68;;
8694;SDS011;65580;49.446;6.854;2023-01-26T18:56:01;27.90;;;10.07;;
8694;SDS011;65580;49.446;6.854;2023-01-26T19:00:08;38.25;;;12.90;;
8694;SDS011;65580;49.446;6.854;2023-01-26T19:04:14;34.33;;;11.02;;
8694;SDS011;65580;49.446;6.854;2023-01-26T19:08:18;26.83;;;9.80;;
8694;SDS011;65580;49.446;6.854;2023-01-26T19:12:24;48.42;;;16.38;;
8694;SDS011;65580;49.446;6.854;2023-01-26T19:16:31;42.90;;;14.98;;
8694;SDS011;65580;49.446;6.854;2023-01-26T19:20:35;28.02;;;11.27;;
8694;SDS011;65580;49.446;6.854;2023-01-26T19:24:40;32.70;;;12.68;;
8694;SDS011;65580;49.446;6.854;2023-01-26T19:28:45;26.23;;;10.82;;
8694;SDS011;65580;49.446;6.854;2023-01-26T19:32:55;30.83;;;10.80;;
8694;SDS011;65580;49.446;6.854;2023-01-26T19:37:20;32.80;;;12.02;;
8694;SDS011;65580;49.446;6.854;2023-01-26T19:41:24;36.15;;;12.38;;
8694;SDS011;65580;49.446;6.854;2023-01-26T19:45:38;31.70;;;12.13;;
8694;SDS011;65580;49.446;6.854;2023-01-26T19:49:44;30.30;;;11.32;;
8694;SDS011;65580;49.446;6.854;2023-01-26T19:53:50;33.28;;;12.88;;
8694;SDS011;65580;49.446;6.854;2023-01-26T20:02:12;33.35;;;13.18;;
8694;SDS011;65580;49.446;6.854;2023-01-26T20:06:18;30.70;;;12.35;;
8694;SDS011;65580;49.446;6.854;2023-01-26T20:10:25;35.22;;;12.68;;
8694;SDS011;65580;49.446;6.854;2023-01-26T20:14:29;30.77;;;12.63;;
8694;SDS011;65580;49.446;6.854;2023-01-26T20:18:33;41.30;;;14.30;;
8694;SDS011;65580;49.446;6.854;2023-01-26T20:22:39;40.00;;;14.93;;
8694;SDS011;65580;49.446;6.854;2023-01-26T20:26:48;31.50;;;11.85;;
8694;SDS011;65580;49.446;6.854;2023-01-26T20:31:09;35.05;;;12.52;;
8694;SDS011;65580;49.446;6.854;2023-01-26T20:35:17;31.50;;;12.60;;
8694;SDS011;65580;49.446;6.854;2023-01-26T20:39:24;30.60;;;12.25;;
8694;SDS011;65580;49.446;6.854;2023-01-26T20:43:29;32.35;;;13.15;;
8694;SDS011;65580;49.446;6.854;2023-01-26T20:47:35;40.40;;;14.10;;
8694;SDS011;65580;49.446;6.854;2023-01-26T20:51:44;52.08;;;16.60;;
8694;SDS011;65580;49.446;6.854;2023-01-26T20:55:57;53.05;;;15.20;;
8694;SDS011;65580;49.446;6.854;2023-01-26T21:00:04;33.80;;;12.82;;
8694;SDS011;65580;49.446;6.854;2023-01-26T21:04:14;38.17;;;14.10;;
8694;SDS011;65580;49.446;6.854;2023-01-26T21:08:18;39.63;;;13.90;;
8694;SDS011;65580;49.446;6.854;2023-01-26T21:12:23;35.80;;;13.27;;
8694;SDS011;65580;49.446;6.854;2023-01-26T21:16:28;33.38;;;13.75;;
8694;SDS011;65580;49.446;6.854;2023-01-26T21:20:38;41.47;;;14.25;;
8694;SDS011;65580;49.446;6.854;2023-01-26T21:24:45;52.58;;;17.20;;
8694;SDS011;65580;49.446;6.854;2023-01-26T21:28:51;52.25;;;17.27;;
8694;SDS011;65580;49.446;6.854;2023-01-26T21:32:56;39.15;;;14.32;;
8694;SDS011;65580;49.446;6.854;2023-01-26T21:37:01;40.08;;;14.48;;
8694;SDS011;65580;49.446;6.854;2023-01-26T21:41:06;45.08;;;15.55;;
8694;SDS011;65580;49.446;6.854;2023-01-26T21:45:36;40.00;;;14.18;;
8694;SDS011;65580;49.446;6.854;2023-01-26T21:49:56;43.95;;;14.40;;
8694;SDS011;65580;49.446;6.854;2023-01-26T21:54:01;34.08;;;13.05;;
8694;SDS011;65580;49.446;6.854;2023-01-26T21:58:06;36.92;;;13.68;;
8694;SDS011;65580;49.446;6.854;2023-01-26T22:02:35;34.22;;;13.32;;
8694;SDS011;65580;49.446;6.854;2023-01-26T22:06:42;46.53;;;15.70;;
8694;SDS011;65580;49.446;6.854;2023-01-26T22:10:53;41.30;;;14.85;;
8694;SDS011;65580;49.446;6.854;2023-01-26T22:14:58;33.25;;;12.98;;
8694;SDS011;65580;49.446;6.854;2023-01-26T22:19:03;35.83;;;13.57;;
8694;SDS011;65580;49.446;6.854;2023-01-26T22:23:11;40.63;;;15.10;;
8694;SDS011;65580;49.446;6.854;2023-01-26T22:27:16;38.63;;;15.00;;
8694;SDS011;65580;49.446;6.854;2023-01-26T22:31:24;41.50;;;14.20;;
8694;SDS011;65580;49.446;6.854;2023-01-26T22:35:36;37.95;;;14.85;;
8694;SDS011;65580;49.446;6.854;2023-01-26T22:39:43;37.35;;;14.75;;
8694;SDS011;65580;49.446;6.854;2023-01-26T22:43:56;35.22;;;12.95;;
8694;SDS011;65580;49.446;6.854;2023-01-26T22:48:06;33.25;;;12.35;;
8694;SDS011;65580;49.446;6.854;2023-01-26T22:52:21;31.08;;;12.45;;
8694;SDS011;65580;49.446;6.854;2023-01-26T22:56:31;30.95;;;11.85;;
8694;SDS011;65580;49.446;6.854;2023-01-26T23:04:40;32.05;;;11.10;;
8694;SDS011;65580;49.446;6.854;2023-01-26T23:08:46;28.90;;;11.80;;
8694;SDS011;65580;49.446;6.854;2023-01-26T23:12:56;30.30;;;10.70;;
8694;SDS011;65580;49.446;6.854;2023-01-26T23:17:05;36.28;;;13.25;;
8694;SDS011;65580;49.446;6.854;2023-01-26T23:21:18;39.17;;;13.98;;
8694;SDS011;65580;49.446;6.854;2023-01-26T23:25:27;34.92;;;12.75;;
8694;SDS011;65580;49.446;6.854;2023-01-26T23:29:51;36.22;;;14.00;;
8694;SDS011;65580;49.446;6.854;2023-01-26T23:33:54;33.75;;;12.23;;
8694;SDS011;65580;49.446;6.854;2023-01-26T23:37:59;31.52;;;12.80;;
8694;SDS011;65580;49.446;6.854;2023-01-26T23:42:06;42.45;;;14.93;;
8694;SDS011;65580;49.446;6.854;2023-01-26T23:46:16;36.45;;;13.63;;
8694;SDS011;65580;49.446;6.854;2023-01-26T23:50:19;33.42;;;13.23;;
8694;SDS011;65580;49.446;6.854;2023-01-26T23:54:26;47.33;;;16.70;;
8694;SDS011;65580;49.446;6.854;2023-01-26T23:58:31;40.03;;;14.88;;
